createdAt,value
2022-11-17T00:02:07.470Z,95.20
2022-11-17T00:04:55.636Z,95.20
2022-11-17T00:07:45.060Z,95.20
2022-11-17T00:10:33.090Z,95.10
2022-11-17T00:13:38.427Z,95.20
2022-11-17T00:16:27.856Z,95.40
2022-11-17T00:19:29.893Z,95.40
2022-11-17T00:22:18.254Z,95.10
2022-11-17T00:25:06.876Z,95.10
2022-11-17T00:27:54.922Z,95.10
2022-11-17T00:31:00.619Z,95.40
2022-11-17T00:34:08.280Z,95.00
2022-11-17T00:36:56.352Z,95.00
2022-11-17T00:39:44.393Z,95.10
2022-11-17T00:42:32.646Z,94.80
2022-11-17T00:45:20.737Z,95.10
2022-11-17T00:48:08.996Z,95.00
2022-11-17T00:50:58.413Z,94.90
2022-11-17T00:53:46.797Z,94.80
2022-11-17T00:56:35.078Z,95.00
2022-11-17T00:59:23.143Z,95.10
2022-11-17T01:02:11.227Z,94.80
2022-11-17T01:04:59.319Z,94.80
2022-11-17T01:07:48.693Z,94.50
2022-11-17T01:10:37.150Z,94.50
2022-11-17T01:13:25.183Z,94.70
2022-11-17T01:16:14.738Z,94.60
2022-11-17T01:19:03.944Z,94.80
2022-11-17T01:21:52.119Z,94.90
2022-11-17T01:24:41.503Z,94.70
2022-11-17T01:27:29.530Z,94.90
2022-11-17T01:30:18.347Z,94.80
2022-11-17T01:33:06.417Z,94.90
2022-11-17T01:35:54.511Z,95.10
2022-11-17T01:38:42.916Z,94.80
2022-11-17T01:41:32.301Z,94.60
2022-11-17T01:44:52.216Z,94.70
2022-11-17T01:47:46.352Z,94.60
2022-11-17T01:50:37.329Z,94.50
2022-11-17T01:53:28.383Z,94.80
2022-11-17T01:56:22.245Z,94.90
2022-11-17T01:59:16.541Z,94.20
2022-11-17T02:02:04.971Z,94.20
2022-11-17T02:04:59.059Z,94.30
2022-11-17T02:07:50.202Z,94.20
2022-11-17T02:10:38.758Z,94.20
2022-11-17T02:13:28.843Z,94.30
2022-11-17T02:16:18.305Z,94.40
2022-11-17T02:19:06.460Z,94.40
2022-11-17T02:22:14.408Z,94.40
2022-11-17T02:25:31.161Z,94.50
2022-11-17T02:28:23.008Z,94.50
2022-11-17T02:31:21.646Z,94.30
2022-11-17T02:34:25.269Z,94.20
2022-11-17T02:37:19.875Z,94.40
2022-11-17T02:40:14.217Z,94.20
2022-11-17T02:43:22.431Z,94.30
2022-11-17T02:46:15.007Z,94.30
2022-11-17T02:49:06.971Z,94.30
2022-11-17T02:51:57.797Z,94.50
2022-11-17T02:54:45.821Z,94.30
2022-11-17T02:57:35.167Z,94.50
2022-11-17T03:00:23.450Z,94.50
2022-11-17T03:03:25.692Z,94.70
2022-11-17T03:06:27.451Z,94.40
2022-11-17T03:09:22.308Z,94.20
2022-11-17T03:12:17.165Z,94.20
2022-11-17T03:15:14.343Z,94.10
2022-11-17T03:18:09.789Z,93.90
2022-11-17T03:21:06.566Z,94.20
2022-11-17T03:24:01.629Z,94.20
2022-11-17T03:26:53.276Z,93.90
2022-11-17T03:29:44.270Z,93.90
2022-11-17T03:32:37.592Z,93.70
2022-11-17T03:35:29.527Z,94.00
2022-11-17T03:38:22.015Z,93.80
2022-11-17T03:41:13.258Z,93.80
2022-11-17T03:44:02.357Z,93.80
2022-11-17T03:46:54.606Z,93.80
2022-11-17T03:49:46.764Z,93.90
2022-11-17T03:52:36.009Z,93.80
2022-11-17T03:55:31.787Z,93.90
2022-11-17T03:58:22.066Z,93.70
2022-11-17T04:01:10.428Z,94.10
2022-11-17T04:03:58.512Z,93.80
2022-11-17T04:06:46.905Z,93.90
2022-11-17T04:09:34.944Z,93.70
2022-11-17T04:12:42.136Z,93.90
2022-11-17T04:15:47.438Z,94.00
2022-11-17T04:18:35.488Z,93.80
2022-11-17T04:21:23.508Z,93.90
2022-11-17T04:24:11.531Z,94.00
2022-11-17T04:27:17.364Z,94.10
2022-11-17T04:30:07.706Z,94.20
2022-11-17T04:32:55.745Z,94.20
2022-11-17T04:35:43.763Z,93.90
2022-11-17T04:38:31.825Z,93.90
2022-11-17T04:41:38.874Z,93.80
2022-11-17T04:44:28.942Z,94.00
2022-11-17T04:47:18.279Z,93.80
2022-11-17T04:50:07.421Z,93.70
2022-11-17T04:52:55.420Z,93.70
2022-11-17T04:55:43.431Z,93.90
2022-11-17T04:58:31.619Z,93.30
2022-11-17T05:01:20.953Z,93.70
2022-11-17T05:04:11.697Z,93.80
2022-11-17T05:06:59.705Z,93.70
2022-11-17T05:09:47.749Z,93.80
2022-11-17T05:12:53.650Z,93.60
2022-11-17T05:15:59.776Z,93.60
2022-11-17T05:18:47.797Z,93.70
2022-11-17T05:21:37.160Z,93.70
2022-11-17T05:24:24.356Z,93.30
2022-11-17T05:27:12.396Z,93.60
2022-11-17T05:30:00.472Z,93.70
2022-11-17T05:32:48.479Z,93.40
2022-11-17T05:35:36.498Z,93.70
2022-11-17T05:38:25.849Z,93.30
2022-11-17T05:41:13.942Z,93.30
2022-11-17T05:44:02.133Z,93.40
2022-11-17T05:46:50.259Z,93.50
2022-11-17T05:49:38.308Z,93.60
2022-11-17T05:52:26.330Z,93.60
2022-11-17T05:55:15.799Z,93.50
2022-11-17T05:58:08.368Z,93.90
2022-11-17T06:00:58.403Z,94.80
2022-11-17T06:03:52.359Z,93.70
2022-11-17T06:06:40.451Z,93.90
2022-11-17T06:09:30.160Z,93.90
2022-11-17T06:12:19.549Z,94.30
2022-11-17T06:15:08.253Z,94.20
2022-11-17T06:17:59.607Z,94.20
2022-11-17T06:20:50.728Z,93.30
2022-11-17T06:23:39.225Z,93.60
2022-11-17T06:26:27.444Z,94.10
2022-11-17T06:29:17.558Z,93.60
2022-11-17T06:32:05.921Z,93.70
2022-11-17T06:34:56.325Z,93.50
2022-11-17T06:37:44.694Z,93.30
2022-11-17T06:40:32.769Z,93.60
2022-11-17T06:43:21.670Z,93.30
2022-11-17T06:46:11.020Z,93.30
2022-11-17T06:48:59.058Z,93.30
2022-11-17T06:51:47.091Z,93.50
2022-11-17T06:54:35.246Z,93.20
2022-11-17T06:57:23.298Z,93.30
2022-11-17T07:00:12.627Z,93.30
2022-11-17T07:03:03.449Z,93.10
2022-11-17T07:05:51.828Z,92.70
2022-11-17T07:08:40.114Z,93.30
2022-11-17T07:11:28.232Z,93.20
2022-11-17T07:14:16.282Z,93.60
2022-11-17T07:17:04.321Z,94.10
2022-11-17T07:19:54.515Z,94.00
2022-11-17T07:22:42.630Z,93.80
2022-11-17T07:25:30.655Z,93.50
2022-11-17T07:28:18.837Z,93.30
2022-11-17T07:31:09.263Z,93.20
2022-11-17T07:33:57.361Z,92.90
2022-11-17T07:36:46.764Z,92.70
2022-11-17T07:39:34.966Z,92.40
2022-11-17T07:42:23.011Z,92.20
2022-11-17T07:45:11.541Z,92.00
2022-11-17T07:48:01.479Z,91.90
2022-11-17T07:50:49.678Z,91.80
2022-11-17T07:53:39.053Z,92.00
2022-11-17T07:56:27.119Z,91.50
2022-11-17T07:59:21.215Z,91.30
2022-11-17T08:02:10.904Z,91.20
2022-11-17T08:04:59.046Z,91.10
2022-11-17T08:07:54.461Z,90.90
2022-11-17T08:10:44.767Z,90.80
2022-11-17T08:13:34.160Z,90.60
2022-11-17T08:16:22.123Z,90.50
2022-11-17T08:19:11.924Z,90.50
2022-11-17T08:21:59.894Z,90.30
2022-11-17T08:24:48.004Z,90.10
2022-11-17T08:27:37.324Z,90.20
2022-11-17T08:30:26.487Z,90.00
2022-11-17T08:33:14.659Z,90.00
2022-11-17T08:36:03.941Z,89.70
2022-11-17T08:38:51.961Z,89.80
2022-11-17T08:41:39.936Z,89.60
2022-11-17T08:44:29.292Z,89.30
2022-11-17T08:47:17.253Z,89.00
2022-11-17T08:50:06.770Z,89.10
2022-11-17T08:52:54.879Z,89.10
2022-11-17T08:55:43.101Z,89.00
2022-11-17T08:58:31.123Z,88.90
2022-11-17T09:01:20.666Z,88.80
2022-11-17T09:04:09.234Z,89.00
2022-11-17T09:06:57.406Z,89.00
2022-11-17T09:09:49.339Z,89.10
2022-11-17T09:12:40.034Z,89.10
2022-11-17T09:15:31.078Z,89.20
2022-11-17T09:18:25.444Z,89.20
2022-11-17T09:21:16.868Z,89.10
2022-11-17T09:24:05.634Z,89.10
2022-11-17T09:26:54.778Z,89.00
2022-11-17T09:29:42.939Z,89.00
2022-11-17T09:32:31.077Z,88.90
2022-11-17T09:35:22.600Z,88.70
2022-11-17T09:38:10.586Z,88.60
2022-11-17T09:40:59.749Z,87.80
2022-11-17T09:43:53.112Z,88.40
2022-11-17T09:46:52.789Z,87.90
2022-11-17T09:49:56.965Z,88.10
2022-11-17T09:52:57.076Z,87.60
2022-11-17T09:55:48.040Z,87.90
2022-11-17T09:58:40.692Z,87.90
2022-11-17T10:01:29.889Z,88.10
2022-11-17T10:04:18.609Z,88.30
2022-11-17T10:07:06.824Z,88.40
2022-11-17T10:09:56.527Z,88.20
2022-11-17T10:12:51.056Z,88.10
2022-11-17T10:15:44.563Z,87.90
2022-11-17T10:18:38.180Z,87.80
2022-11-17T10:21:30.285Z,87.60
2022-11-17T10:24:38.847Z,87.40
2022-11-17T10:27:29.849Z,87.20
2022-11-17T10:30:23.414Z,87.10
2022-11-17T10:33:14.388Z,86.90
2022-11-17T10:36:03.845Z,87.00
2022-11-17T10:38:54.138Z,86.90
2022-11-17T10:41:45.191Z,86.40
2022-11-17T10:44:35.043Z,86.80
2022-11-17T10:47:29.012Z,86.40
2022-11-17T10:50:23.646Z,86.50
2022-11-17T10:53:41.312Z,86.70
2022-11-17T10:56:33.837Z,87.00
2022-11-17T10:59:31.872Z,87.00
2022-11-17T11:02:30.600Z,87.00
2022-11-17T11:05:21.184Z,86.90
2022-11-17T11:08:19.474Z,87.00
2022-11-17T11:11:13.647Z,87.00
2022-11-17T11:14:08.165Z,87.10
2022-11-17T11:16:56.495Z,86.80
2022-11-17T11:19:51.253Z,86.60
2022-11-17T11:22:47.967Z,86.40
2022-11-17T11:25:40.503Z,86.20
2022-11-17T11:28:46.373Z,86.10
2022-11-17T11:31:46.035Z,85.80
2022-11-17T11:35:04.740Z,85.50
2022-11-17T11:38:03.059Z,85.70
2022-11-17T11:41:06.328Z,85.50
2022-11-17T11:44:07.349Z,85.50
2022-11-17T11:47:03.666Z,85.50
2022-11-17T11:49:56.709Z,85.60
2022-11-17T11:52:49.531Z,85.50
2022-11-17T11:55:41.164Z,85.70
2022-11-17T11:58:29.264Z,86.00
2022-11-17T12:01:21.769Z,85.50
2022-11-17T12:04:22.194Z,86.00
2022-11-17T12:07:17.983Z,85.90
2022-11-17T12:10:14.844Z,85.50
2022-11-17T12:13:04.221Z,85.50
2022-11-17T12:15:53.440Z,85.40
2022-11-17T12:18:41.529Z,85.20
2022-11-17T12:21:30.518Z,86.20
2022-11-17T12:24:24.952Z,84.70
2022-11-17T12:27:42.670Z,84.60
2022-11-17T12:30:52.539Z,84.50
2022-11-17T12:34:30.507Z,84.40
2022-11-17T12:37:27.429Z,84.40
2022-11-17T12:40:45.472Z,84.00
2022-11-17T12:43:35.177Z,84.30
2022-11-17T12:46:34.164Z,84.20
2022-11-17T12:49:32.772Z,84.20
2022-11-17T12:52:29.552Z,83.90
2022-11-17T12:55:25.617Z,84.60
2022-11-17T12:58:21.487Z,84.70
2022-11-17T13:01:18.453Z,84.70
2022-11-17T13:04:13.104Z,84.60
2022-11-17T13:07:02.582Z,84.60
2022-11-17T13:09:52.823Z,84.50
2022-11-17T13:12:40.875Z,84.40
2022-11-17T13:15:29.009Z,84.30
2022-11-17T13:18:30.399Z,84.10
2022-11-17T13:21:29.950Z,84.00
2022-11-17T13:24:30.865Z,84.00
2022-11-17T13:27:23.150Z,83.80
2022-11-17T13:30:15.986Z,83.70
2022-11-17T13:33:04.595Z,83.50
2022-11-17T13:36:08.890Z,83.60
2022-11-17T13:39:00.302Z,83.40
2022-11-17T13:41:48.835Z,83.50
2022-11-17T13:44:36.845Z,84.10
2022-11-17T13:47:40.997Z,83.40
2022-11-17T13:50:38.135Z,82.80
2022-11-17T13:53:27.926Z,82.70
2022-11-17T13:56:26.690Z,83.50
2022-11-17T13:59:24.474Z,83.60
2022-11-17T14:02:25.103Z,84.00
2022-11-17T14:05:25.798Z,84.10
2022-11-17T14:08:23.447Z,84.00
2022-11-17T14:11:22.650Z,84.10
2022-11-17T14:14:14.332Z,83.90
2022-11-17T14:17:13.063Z,83.70
2022-11-17T14:20:20.188Z,83.60
2022-11-17T14:23:18.857Z,83.50
2022-11-17T14:26:12.978Z,83.40
2022-11-17T14:29:03.123Z,83.30
2022-11-17T14:31:51.387Z,83.00
2022-11-17T14:34:39.324Z,82.90
2022-11-17T14:37:28.920Z,82.40
2022-11-17T14:40:18.514Z,82.50
2022-11-17T14:43:06.459Z,82.50
2022-11-17T14:45:55.745Z,82.40
2022-11-17T14:48:43.720Z,82.30
2022-11-17T14:51:31.722Z,81.90
2022-11-17T14:54:19.680Z,82.00
2022-11-17T14:57:07.635Z,82.20
2022-11-17T14:59:55.609Z,82.40
2022-11-17T15:02:51.123Z,82.30
2022-11-17T15:05:45.443Z,82.60
2022-11-17T15:08:33.430Z,82.80
2022-11-17T15:11:21.390Z,83.00
2022-11-17T15:14:09.360Z,82.90
2022-11-17T15:16:57.352Z,82.80
2022-11-17T15:19:46.651Z,82.80
2022-11-17T15:22:34.613Z,82.70
2022-11-17T15:25:22.675Z,82.70
2022-11-17T15:28:13.787Z,83.20
2022-11-17T15:31:09.842Z,82.20
2022-11-17T15:33:57.875Z,82.50
2022-11-17T15:36:47.244Z,82.30
2022-11-17T15:39:35.757Z,82.20
2022-11-17T15:42:23.697Z,82.20
2022-11-17T15:45:11.917Z,81.90
2022-11-17T15:47:59.998Z,81.90
2022-11-17T15:50:48.130Z,82.10
2022-11-17T15:53:39.134Z,82.00
2022-11-17T15:56:28.601Z,82.00
2022-11-17T15:59:16.849Z,82.00
2022-11-17T16:02:09.805Z,81.90
2022-11-17T16:04:57.785Z,82.20
2022-11-17T16:10:39.983Z,82.40
2022-11-17T16:13:27.965Z,82.50
2022-11-17T16:16:16.472Z,82.30
2022-11-17T16:19:05.437Z,82.20
2022-11-17T16:21:53.427Z,82.50
2022-11-17T16:24:41.404Z,82.60
2022-11-17T16:27:30.650Z,82.00
2022-11-17T16:30:18.629Z,82.40
2022-11-17T16:33:11.936Z,82.70
2022-11-17T16:36:05.454Z,82.90
2022-11-17T16:39:00.916Z,82.90
2022-11-17T16:41:51.358Z,83.60
2022-11-17T16:44:40.738Z,84.40
2022-11-17T16:47:28.776Z,84.40
2022-11-17T16:50:17.143Z,84.70
2022-11-17T16:53:05.371Z,85.00
2022-11-17T16:55:53.310Z,85.10
2022-11-17T16:58:41.295Z,85.00
2022-11-17T17:01:32.364Z,85.00
2022-11-17T17:04:20.477Z,85.50
2022-11-17T17:07:08.484Z,85.70
2022-11-17T17:09:56.495Z,85.50
2022-11-17T17:12:44.421Z,85.70
2022-11-17T17:15:33.589Z,86.00
2022-11-17T17:18:23.591Z,85.70
2022-11-17T17:21:15.089Z,85.90
2022-11-17T17:24:03.476Z,85.80
2022-11-17T17:26:51.404Z,86.60
2022-11-17T17:29:39.347Z,86.40
2022-11-17T17:32:27.359Z,86.80
2022-11-17T17:35:17.288Z,87.00
2022-11-17T17:38:05.350Z,87.30
2022-11-17T17:40:53.291Z,87.30
2022-11-17T17:43:42.458Z,86.90
2022-11-17T17:46:31.949Z,87.60
2022-11-17T17:49:20.228Z,87.70
2022-11-17T17:52:13.712Z,87.90
2022-11-17T17:55:01.984Z,88.10
2022-11-17T17:57:49.987Z,88.00
2022-11-17T18:00:37.900Z,88.00
2022-11-17T18:03:25.906Z,88.20
2022-11-17T18:06:14.662Z,88.20
2022-11-17T18:09:04.541Z,88.60
2022-11-17T18:11:52.497Z,88.70
2022-11-17T18:14:40.442Z,88.70
2022-11-17T18:17:28.384Z,88.70
2022-11-17T18:20:17.153Z,88.80
2022-11-17T18:23:05.108Z,88.80
2022-11-17T18:25:54.404Z,88.90
2022-11-17T18:28:43.672Z,89.00
2022-11-17T18:31:33.813Z,88.50
2022-11-17T18:34:23.283Z,89.10
2022-11-17T18:37:11.225Z,88.80
2022-11-17T18:39:59.176Z,89.20
2022-11-17T18:42:48.437Z,89.10
2022-11-17T18:45:38.306Z,89.40
2022-11-17T18:48:26.227Z,89.20
2022-11-17T18:51:20.293Z,89.40
2022-11-17T18:54:08.894Z,89.60
2022-11-17T18:56:57.013Z,89.60
2022-11-17T18:59:46.348Z,89.60
2022-11-17T19:02:35.290Z,90.00
2022-11-17T19:05:23.241Z,89.80
2022-11-17T19:08:11.191Z,89.80
2022-11-17T19:11:04.716Z,90.00
2022-11-17T19:13:53.972Z,90.00
2022-11-17T19:16:45.140Z,90.00
2022-11-17T19:19:33.324Z,90.00
2022-11-17T19:22:21.274Z,90.10
2022-11-17T19:25:09.478Z,90.10
2022-11-17T19:27:58.019Z,90.10
2022-11-17T19:30:46.057Z,90.10
2022-11-17T19:33:37.491Z,90.10
2022-11-17T19:36:27.303Z,90.50
2022-11-17T19:39:16.981Z,90.00
2022-11-17T19:42:05.301Z,90.10
2022-11-17T19:44:53.327Z,90.20
2022-11-17T19:47:41.286Z,90.20
2022-11-17T19:50:31.772Z,90.20
2022-11-17T19:53:19.737Z,90.10
2022-11-17T19:56:08.252Z,90.30
2022-11-17T19:58:56.529Z,90.20
2022-11-17T20:01:45.049Z,90.30
2022-11-17T20:04:33.067Z,90.30
2022-11-17T20:07:22.382Z,90.20
2022-11-17T20:10:10.660Z,90.10
2022-11-17T20:12:58.787Z,90.40
2022-11-17T20:15:47.567Z,90.40
2022-11-17T20:18:35.510Z,90.40
2022-11-17T20:21:24.509Z,90.20
2022-11-17T20:24:13.920Z,90.40
2022-11-17T20:27:01.876Z,90.30
2022-11-17T20:29:49.887Z,90.50
2022-11-17T20:32:37.877Z,90.30
2022-11-17T20:35:25.879Z,90.60
2022-11-17T20:38:15.932Z,90.40
2022-11-17T20:41:06.323Z,90.40
2022-11-17T20:43:56.254Z,90.50
2022-11-17T20:46:44.214Z,90.50
2022-11-17T20:49:32.383Z,90.50
2022-11-17T20:52:20.330Z,90.50
2022-11-17T20:55:09.128Z,90.60
2022-11-17T20:57:58.393Z,90.50
2022-11-17T21:00:46.435Z,90.50
2022-11-17T21:03:34.653Z,90.40
2022-11-17T21:06:23.789Z,90.50
2022-11-17T21:09:11.933Z,90.60
2022-11-17T21:12:00.292Z,90.70
2022-11-17T21:14:49.809Z,90.60
2022-11-17T21:17:55.603Z,90.60
2022-11-17T21:20:43.561Z,90.60
2022-11-17T21:23:32.187Z,90.70
2022-11-17T21:26:20.188Z,90.60
2022-11-17T21:29:08.154Z,90.70
2022-11-17T21:31:57.394Z,90.60
2022-11-17T21:34:49.664Z,90.70
2022-11-17T21:37:37.869Z,90.60
2022-11-17T21:40:25.836Z,90.70
2022-11-17T21:43:13.777Z,90.60
2022-11-17T21:46:03.154Z,90.50
2022-11-17T21:48:53.805Z,90.70
2022-11-17T21:51:41.761Z,90.50
2022-11-17T21:54:29.780Z,90.60
2022-11-17T21:57:17.762Z,90.60
2022-11-17T22:00:06.648Z,90.60
2022-11-17T22:02:54.746Z,90.70
2022-11-17T22:05:44.025Z,90.70
2022-11-17T22:08:31.976Z,90.60
2022-11-17T22:11:35.297Z,90.50
2022-11-17T22:14:23.894Z,90.80
2022-11-17T22:17:11.846Z,90.70
2022-11-17T22:19:59.828Z,90.40
2022-11-17T22:22:51.066Z,90.70
2022-11-17T22:25:45.368Z,90.70
2022-11-17T22:28:33.836Z,90.60
2022-11-17T22:31:22.527Z,90.30
2022-11-17T22:34:10.504Z,90.60
2022-11-17T22:36:58.461Z,90.30
2022-11-17T22:39:47.758Z,90.70
2022-11-17T22:42:35.700Z,90.30
2022-11-17T22:45:23.653Z,90.80
2022-11-17T22:48:11.758Z,90.60
2022-11-17T22:50:59.996Z,90.50
2022-11-17T22:53:47.965Z,90.70
2022-11-17T22:56:38.197Z,90.50
2022-11-17T22:59:26.657Z,90.60
2022-11-17T23:02:14.590Z,90.80
2022-11-17T23:05:02.545Z,90.70
2022-11-17T23:07:50.480Z,90.60
2022-11-17T23:10:38.917Z,90.70
2022-11-17T23:13:28.390Z,90.60
2022-11-17T23:16:16.732Z,90.50
2022-11-17T23:19:05.668Z,90.70
2022-11-17T23:21:53.632Z,90.40
2022-11-17T23:24:41.592Z,90.60
2022-11-17T23:27:29.529Z,90.50
2022-11-17T23:30:19.099Z,90.60
2022-11-17T23:33:07.630Z,90.70
2022-11-17T23:35:57.825Z,90.80
2022-11-17T23:38:46.020Z,90.60
2022-11-17T23:41:34.045Z,90.50
2022-11-17T23:44:22.015Z,90.50
2022-11-17T23:47:11.302Z,90.60
2022-11-17T23:49:59.291Z,90.60
2022-11-17T23:52:47.254Z,90.70
2022-11-17T23:55:35.234Z,90.60
2022-11-17T23:58:23.538Z,90.60
